createdAt,value
2022-08-21T00:02:31.782Z,5.53
2022-08-21T00:05:02.245Z,5.00
2022-08-21T00:07:32.913Z,4.63
2022-08-21T00:10:03.219Z,4.30
2022-08-21T00:12:33.425Z,4.45
2022-08-21T00:15:06.354Z,4.75
2022-08-21T00:17:38.786Z,5.00
2022-08-21T00:20:09.952Z,4.60
2022-08-21T00:22:40.733Z,4.97
2022-08-21T00:25:11.661Z,5.35
2022-08-21T00:27:43.205Z,5.50
2022-08-21T00:30:22.785Z,5.38
2022-08-21T00:32:53.884Z,6.45
2022-08-21T00:35:25.621Z,5.68
2022-08-21T00:37:55.845Z,5.10
2022-08-21T00:40:28.666Z,4.80
2022-08-21T00:42:58.962Z,4.20
2022-08-21T00:45:32.788Z,4.82
2022-08-21T00:48:03.204Z,4.47
2022-08-21T00:50:36.381Z,4.65
2022-08-21T00:53:07.557Z,4.40
2022-08-21T00:55:39.866Z,4.22
2022-08-21T00:58:11.333Z,3.47
2022-08-21T01:00:45.261Z,4.80
2022-08-21T01:05:46.940Z,4.95
2022-08-21T01:08:17.909Z,5.32
2022-08-21T01:10:49.088Z,5.10
2022-08-21T01:13:30.284Z,6.05
2022-08-21T01:16:06.189Z,6.30
2022-08-21T01:18:36.576Z,5.82
2022-08-21T01:21:12.777Z,6.50
2022-08-21T01:23:45.745Z,6.63
2022-08-21T01:26:17.244Z,7.65
2022-08-21T01:28:52.100Z,6.90
2022-08-21T01:31:24.070Z,6.97
2022-08-21T01:33:57.217Z,6.40
2022-08-21T01:36:30.512Z,6.82
2022-08-21T01:39:01.011Z,6.30
2022-08-21T01:41:31.332Z,5.28
2022-08-21T01:44:01.617Z,5.43
2022-08-21T01:46:31.996Z,4.45
2022-08-21T01:49:02.279Z,3.72
2022-08-21T01:51:35.115Z,3.83
2022-08-21T01:54:05.482Z,3.75
2022-08-21T01:56:40.647Z,3.80
2022-08-21T01:59:11.084Z,3.28
2022-08-21T02:01:42.135Z,3.65
2022-08-21T02:04:12.609Z,3.08
2022-08-21T02:06:46.201Z,4.68
2022-08-21T02:09:17.135Z,5.47
2022-08-21T02:11:47.436Z,5.47
2022-08-21T02:14:28.646Z,5.28
2022-08-21T02:17:09.984Z,4.60
2022-08-21T02:19:41.102Z,4.85
2022-08-21T02:22:14.123Z,4.10
2022-08-21T02:24:53.780Z,3.58
2022-08-21T02:27:26.648Z,3.80
2022-08-21T02:29:57.804Z,4.32
2022-08-21T02:32:29.128Z,3.92
2022-08-21T02:34:59.130Z,4.50
2022-08-21T02:37:31.865Z,4.57
2022-08-21T02:40:03.342Z,4.47
2022-08-21T02:42:33.476Z,5.07
2022-08-21T02:45:03.758Z,5.70
2022-08-21T02:47:33.867Z,5.10
2022-08-21T02:50:03.918Z,4.88
2022-08-21T02:52:37.953Z,4.45
2022-08-21T02:57:38.514Z,4.20
2022-08-21T03:00:10.830Z,4.35
2022-08-21T03:02:41.146Z,4.70
2022-08-21T03:05:13.749Z,4.40
2022-08-21T03:07:48.122Z,4.60
2022-08-21T03:10:20.900Z,4.18
2022-08-21T03:12:51.084Z,4.10
2022-08-21T03:15:24.598Z,3.58
2022-08-21T03:17:55.625Z,4.13
2022-08-21T03:20:28.010Z,4.28
2022-08-21T03:23:01.022Z,4.40
2022-08-21T03:25:40.675Z,3.72
2022-08-21T03:28:17.002Z,4.43
2022-08-21T03:30:48.458Z,3.72
2022-08-21T03:33:20.610Z,4.10
2022-08-21T03:36:01.645Z,3.88
2022-08-21T03:38:36.005Z,2.92
2022-08-21T03:41:07.139Z,3.53
2022-08-21T03:43:39.633Z,3.35
2022-08-21T03:46:10.644Z,3.28
2022-08-21T03:48:42.005Z,3.25
2022-08-21T03:51:12.300Z,3.40
2022-08-21T03:53:45.945Z,2.80
2022-08-21T03:56:17.085Z,2.67
2022-08-21T03:58:47.269Z,2.60
2022-08-21T04:01:17.414Z,2.58
2022-08-21T04:03:47.433Z,2.95
2022-08-21T04:06:17.447Z,2.83
2022-08-21T04:08:50.214Z,2.50
2022-08-21T04:11:20.229Z,2.55
2022-08-21T04:13:50.748Z,2.90
2022-08-21T04:16:20.727Z,2.53
2022-08-21T04:18:50.728Z,3.35
2022-08-21T04:21:20.759Z,3.15
2022-08-21T04:23:58.419Z,3.70
2022-08-21T04:26:29.215Z,4.00
2022-08-21T04:28:59.452Z,4.72
2022-08-21T04:31:29.865Z,4.32
2022-08-21T04:34:00.258Z,4.57
2022-08-21T04:36:30.685Z,4.80
2022-08-21T04:39:03.568Z,3.13
2022-08-21T04:41:33.996Z,3.08
2022-08-21T04:44:04.246Z,4.57
2022-08-21T04:46:34.244Z,5.60
2022-08-21T04:49:04.365Z,5.63
2022-08-21T04:51:39.642Z,5.40
2022-08-21T04:54:16.747Z,5.00
2022-08-21T04:56:49.275Z,5.10
2022-08-21T04:59:22.535Z,4.90
2022-08-21T05:01:54.377Z,5.72
2022-08-21T05:04:28.103Z,4.97
2022-08-21T05:07:01.075Z,5.72
2022-08-21T05:09:33.977Z,6.28
2022-08-21T05:12:05.149Z,5.03
2022-08-21T05:14:35.220Z,6.05
2022-08-21T05:17:05.443Z,5.55
2022-08-21T05:19:35.537Z,5.88
2022-08-21T05:22:05.917Z,5.38
2022-08-21T05:24:39.026Z,5.82
2022-08-21T05:27:09.576Z,4.87
2022-08-21T05:29:39.531Z,5.45
2022-08-21T05:32:13.381Z,6.00
2022-08-21T05:34:43.750Z,5.63
2022-08-21T05:37:15.772Z,5.72
2022-08-21T05:40:09.600Z,5.03
2022-08-21T05:42:38.646Z,5.45
2022-08-21T05:45:09.643Z,7.03
2022-08-21T05:47:40.586Z,5.95
2022-08-21T05:50:11.556Z,6.53
2022-08-21T05:52:41.549Z,6.68
2022-08-21T05:55:14.350Z,5.47
2022-08-21T05:57:44.371Z,4.85
2022-08-21T06:00:15.944Z,6.43
2022-08-21T06:02:45.955Z,5.93
2022-08-21T06:05:16.555Z,5.72
2022-08-21T06:07:55.725Z,5.75
2022-08-21T06:10:28.356Z,5.55
2022-08-21T06:12:58.968Z,5.88
2022-08-21T06:15:29.081Z,5.60
2022-08-21T06:17:59.231Z,5.15
2022-08-21T06:20:29.661Z,5.63
2022-08-21T06:22:59.781Z,4.93
2022-08-21T06:25:32.784Z,4.88
2022-08-21T06:28:08.041Z,6.72
2022-08-21T06:30:39.259Z,5.40
2022-08-21T06:33:11.311Z,6.07
2022-08-21T06:35:41.763Z,5.60
2022-08-21T06:38:12.263Z,8.05
2022-08-21T06:40:48.120Z,10.18
2022-08-21T06:43:20.568Z,6.80
2022-08-21T06:45:50.649Z,8.25
2022-08-21T06:48:20.683Z,6.65
2022-08-21T06:50:51.614Z,7.57
2022-08-21T06:53:24.287Z,7.30
2022-08-21T06:55:57.091Z,7.75
2022-08-21T06:58:27.054Z,7.18
2022-08-21T07:01:00.797Z,8.02
2022-08-21T07:06:02.536Z,7.25
2022-08-21T07:08:32.739Z,7.53
2022-08-21T07:11:10.530Z,8.80
2022-08-21T07:13:40.790Z,8.23
2022-08-21T07:16:10.864Z,8.02
2022-08-21T07:18:41.232Z,7.53
2022-08-21T07:21:12.361Z,8.10
2022-08-21T07:23:45.292Z,7.85
2022-08-21T07:26:20.915Z,7.75
2022-08-21T07:28:51.324Z,8.50
2022-08-21T07:31:22.959Z,8.25
2022-08-21T07:33:53.326Z,9.48
2022-08-21T07:36:23.447Z,8.23
2022-08-21T07:38:53.852Z,8.32
2022-08-21T07:41:29.635Z,10.02
2022-08-21T07:44:00.085Z,9.45
2022-08-21T07:46:30.410Z,9.48
2022-08-21T07:49:00.676Z,8.13
2022-08-21T07:51:32.662Z,8.90
2022-08-21T07:54:03.654Z,8.88
2022-08-21T07:56:36.318Z,9.38
2022-08-21T07:59:06.663Z,9.77
2022-08-21T08:01:36.740Z,9.65
2022-08-21T08:04:07.458Z,9.30
2022-08-21T08:06:37.477Z,9.73
2022-08-21T08:09:07.500Z,10.55
2022-08-21T08:11:44.163Z,10.07
2022-08-21T08:14:14.571Z,11.00
2022-08-21T08:16:45.181Z,9.95
2022-08-21T08:19:15.508Z,10.32
2022-08-21T08:21:45.803Z,10.10
2022-08-21T08:24:18.910Z,10.27
2022-08-21T08:29:24.663Z,10.00
2022-08-21T08:31:55.616Z,9.35
2022-08-21T08:34:25.986Z,9.15
2022-08-21T08:36:58.888Z,10.70
2022-08-21T08:39:30.074Z,10.38
2022-08-21T08:42:33.709Z,9.82
2022-08-21T08:45:02.476Z,10.80
2022-08-21T08:47:33.614Z,10.82
2022-08-21T08:50:07.660Z,9.68
2022-08-21T08:52:39.584Z,9.38
2022-08-21T08:55:11.931Z,9.90
2022-08-21T08:57:49.374Z,8.90
2022-08-21T09:00:23.031Z,9.05
2022-08-21T09:02:56.690Z,8.30
2022-08-21T09:05:29.733Z,9.05
2022-08-21T09:08:18.708Z,8.73
2022-08-21T09:11:04.327Z,8.60
2022-08-21T09:13:42.230Z,9.00
2022-08-21T09:16:24.339Z,8.93
2022-08-21T09:19:03.517Z,9.40
2022-08-21T09:21:42.848Z,9.60
2022-08-21T09:24:22.080Z,10.63
2022-08-21T09:26:56.370Z,9.35
2022-08-21T09:29:33.864Z,9.27
2022-08-21T09:32:04.167Z,8.57
2022-08-21T09:34:35.468Z,9.63
2022-08-21T09:37:05.663Z,9.18
2022-08-21T09:39:39.891Z,9.85
2022-08-21T09:42:12.441Z,9.48
2022-08-21T09:44:45.975Z,9.98
2022-08-21T09:47:17.258Z,8.57
2022-08-21T09:49:47.687Z,8.25
2022-08-21T09:52:23.290Z,8.45
2022-08-21T09:54:55.531Z,8.68
2022-08-21T09:57:46.327Z,7.82
2022-08-21T10:00:23.553Z,7.88
2022-08-21T10:02:53.732Z,7.45
2022-08-21T10:05:26.752Z,7.15
2022-08-21T10:07:59.866Z,7.28
2022-08-21T10:10:33.186Z,7.47
2022-08-21T10:13:12.543Z,7.20
2022-08-21T10:15:49.911Z,7.68
2022-08-21T10:18:25.821Z,8.15
2022-08-21T10:21:03.445Z,6.65
2022-08-21T10:23:47.008Z,7.95
2022-08-21T10:26:25.016Z,7.28
2022-08-21T10:29:00.311Z,7.07
2022-08-21T10:31:41.595Z,7.75
2022-08-21T10:34:20.258Z,7.47
2022-08-21T10:36:56.668Z,6.97
2022-08-21T10:39:35.622Z,6.38
2022-08-21T10:42:37.165Z,6.25
2022-08-21T10:45:33.555Z,6.93
2022-08-21T10:48:09.059Z,6.25
2022-08-21T10:50:43.025Z,5.50
2022-08-21T10:53:24.952Z,4.15
2022-08-21T10:55:56.831Z,4.80
2022-08-21T10:58:30.331Z,6.50
2022-08-21T11:03:36.724Z,4.70
2022-08-21T11:06:09.085Z,3.88
2022-08-21T11:08:43.832Z,4.05
2022-08-21T11:11:22.698Z,4.38
2022-08-21T11:13:57.719Z,4.75
2022-08-21T11:16:30.660Z,4.43
2022-08-21T11:19:09.523Z,4.25
2022-08-21T11:21:42.384Z,3.95
2022-08-21T11:24:22.843Z,3.28
2022-08-21T11:26:56.774Z,4.07
2022-08-21T11:29:31.388Z,4.55
2022-08-21T11:32:21.042Z,2.63
2022-08-21T11:35:01.455Z,3.08
2022-08-21T11:37:38.485Z,3.22
2022-08-21T11:40:14.350Z,2.60
2022-08-21T11:42:48.558Z,4.00
2022-08-21T11:45:28.219Z,3.92
2022-08-21T11:48:04.197Z,3.80
2022-08-21T11:50:37.339Z,3.38
2022-08-21T11:53:09.700Z,3.50
2022-08-21T11:55:41.961Z,2.97
2022-08-21T11:58:14.876Z,3.05
2022-08-21T12:00:46.928Z,3.05
2022-08-21T12:03:20.288Z,2.97
2022-08-21T12:06:01.120Z,2.67
2022-08-21T12:08:32.389Z,2.67
2022-08-21T12:11:08.256Z,2.42
2022-08-21T12:13:42.198Z,2.50
2022-08-21T12:16:17.023Z,2.15
2022-08-21T12:18:47.871Z,2.25
2022-08-21T12:21:25.680Z,2.40
2022-08-21T12:24:04.418Z,2.22
2022-08-21T12:26:36.550Z,2.40
2022-08-21T12:29:18.414Z,2.03
2022-08-21T12:31:53.060Z,2.20
2022-08-21T12:34:24.482Z,2.05
2022-08-21T12:36:58.895Z,1.67
2022-08-21T12:39:30.853Z,1.92
2022-08-21T12:42:04.625Z,1.63
2022-08-21T12:44:38.710Z,2.03
2022-08-21T12:47:16.236Z,1.95
2022-08-21T12:49:50.569Z,1.88
2022-08-21T12:52:25.131Z,1.70
2022-08-21T12:54:55.724Z,1.55
2022-08-21T12:57:27.149Z,1.83
2022-08-21T12:59:59.586Z,1.52
2022-08-21T13:02:32.835Z,1.90
2022-08-21T13:05:08.093Z,1.40
2022-08-21T13:07:41.454Z,1.67
2022-08-21T13:10:22.044Z,2.22
2022-08-21T13:12:52.687Z,1.60
2022-08-21T13:15:31.983Z,1.70
2022-08-21T13:18:05.555Z,1.80
2022-08-21T13:20:39.440Z,1.98
2022-08-21T13:23:27.357Z,1.90
2022-08-21T13:25:58.690Z,1.73
2022-08-21T13:28:37.579Z,1.60
2022-08-21T13:31:12.288Z,1.45
2022-08-21T13:33:45.103Z,1.77
2022-08-21T13:36:18.141Z,1.42
2022-08-21T13:38:51.119Z,1.30
2022-08-21T13:41:24.831Z,1.55
2022-08-21T13:44:00.856Z,1.40
2022-08-21T13:46:32.596Z,1.70
2022-08-21T13:49:03.917Z,1.23
2022-08-21T13:51:35.018Z,1.38
2022-08-21T13:54:18.729Z,0.93
2022-08-21T13:56:50.197Z,1.27
2022-08-21T13:59:28.422Z,1.40
2022-08-21T14:02:00.286Z,1.20
2022-08-21T14:04:37.474Z,1.70
2022-08-21T14:07:19.588Z,1.30
2022-08-21T14:09:52.566Z,1.27
2022-08-21T14:12:30.141Z,1.70
2022-08-21T14:15:01.373Z,1.48
2022-08-21T14:17:33.736Z,1.33
2022-08-21T14:20:04.451Z,1.50
2022-08-21T14:22:40.918Z,1.58
2022-08-21T14:25:18.166Z,1.50
2022-08-21T14:27:54.816Z,1.50
2022-08-21T14:30:32.646Z,1.13
2022-08-21T14:33:03.409Z,1.33
2022-08-21T14:35:33.820Z,1.33
2022-08-21T14:38:04.092Z,1.35
2022-08-21T14:40:37.714Z,1.20
2022-08-21T14:43:09.372Z,1.50
2022-08-21T14:45:41.602Z,1.45
2022-08-21T14:48:12.243Z,1.27
2022-08-21T14:50:42.680Z,1.42
2022-08-21T14:53:13.387Z,1.20
2022-08-21T14:55:58.766Z,1.50
2022-08-21T14:58:29.310Z,1.33
2022-08-21T15:01:04.400Z,1.40
2022-08-21T15:03:35.171Z,1.02
2022-08-21T15:06:09.033Z,1.00
2022-08-21T15:08:39.336Z,1.15
2022-08-21T15:11:19.910Z,1.17
2022-08-21T15:14:07.610Z,1.40
2022-08-21T15:16:38.060Z,1.00
2022-08-21T15:19:08.479Z,0.98
2022-08-21T15:21:38.746Z,0.88
2022-08-21T15:24:09.214Z,1.00
2022-08-21T15:26:41.784Z,1.30
2022-08-21T15:29:12.402Z,1.20
2022-08-21T15:31:53.652Z,1.27
2022-08-21T15:34:25.417Z,0.80
2022-08-21T15:36:57.699Z,1.05
2022-08-21T15:39:31.018Z,1.00
2022-08-21T15:42:10.580Z,1.20
2022-08-21T15:44:41.769Z,1.05
2022-08-21T15:47:16.049Z,1.45
2022-08-21T15:49:46.542Z,1.17
2022-08-21T15:52:17.458Z,1.00
2022-08-21T15:54:47.783Z,1.02
2022-08-21T15:57:22.124Z,1.15
2022-08-21T15:59:54.037Z,1.30
2022-08-21T16:02:27.991Z,1.25
2022-08-21T16:04:58.643Z,1.52
2022-08-21T16:07:29.040Z,1.58
2022-08-21T16:09:59.295Z,1.17
2022-08-21T16:12:34.675Z,1.30
2022-08-21T16:15:05.678Z,1.23
2022-08-21T16:17:36.743Z,1.20
2022-08-21T16:20:11.360Z,1.08
2022-08-21T16:22:44.424Z,1.25
2022-08-21T16:25:16.489Z,1.30
2022-08-21T16:27:58.935Z,1.30
2022-08-21T16:30:30.112Z,1.10
2022-08-21T16:33:00.649Z,1.20
2022-08-21T16:35:31.427Z,1.55
2022-08-21T16:38:02.053Z,1.73
2022-08-21T16:40:32.419Z,1.10
2022-08-21T16:43:05.291Z,1.10
2022-08-21T16:45:35.602Z,1.50
2022-08-21T16:48:09.796Z,1.50
2022-08-21T16:50:40.647Z,1.20
2022-08-21T16:53:10.973Z,1.20
2022-08-21T16:55:41.653Z,1.50
2022-08-21T16:58:20.782Z,1.35
2022-08-21T17:00:51.219Z,1.42
2022-08-21T17:03:24.074Z,1.58
2022-08-21T17:05:54.421Z,1.08
2022-08-21T17:08:24.425Z,1.15
2022-08-21T17:10:54.908Z,1.42
2022-08-21T17:13:28.612Z,1.10
2022-08-21T17:15:59.093Z,0.98
2022-08-21T17:18:29.509Z,1.17
2022-08-21T17:20:59.730Z,1.10
2022-08-21T17:23:29.954Z,1.60
2022-08-21T17:26:00.280Z,1.00
2022-08-21T17:28:36.725Z,1.35
2022-08-21T17:31:10.006Z,1.50
2022-08-21T17:33:50.391Z,1.50
2022-08-21T17:36:20.831Z,1.42
2022-08-21T17:38:51.441Z,1.38
2022-08-21T17:41:22.583Z,1.17
2022-08-21T17:43:56.360Z,1.35
2022-08-21T17:46:29.733Z,1.75
2022-08-21T17:49:01.505Z,1.77
2022-08-21T17:51:32.468Z,1.35
2022-08-21T17:54:03.791Z,1.77
2022-08-21T17:56:37.870Z,1.45
2022-08-21T17:59:10.995Z,1.33
2022-08-21T18:01:45.044Z,1.80
2022-08-21T18:04:15.750Z,1.17
2022-08-21T18:06:46.507Z,1.73
2022-08-21T18:09:18.446Z,1.45
2022-08-21T18:11:48.470Z,1.50
2022-08-21T18:14:31.025Z,1.48
2022-08-21T18:17:01.584Z,1.70
2022-08-21T18:19:31.643Z,1.52
2022-08-21T18:22:04.556Z,1.90
2022-08-21T18:24:35.096Z,2.10
2022-08-21T18:27:05.727Z,3.60
2022-08-21T18:29:47.069Z,4.03
2022-08-21T18:32:31.248Z,3.88
2022-08-21T18:35:04.723Z,2.72
2022-08-21T18:37:35.047Z,2.92
2022-08-21T18:40:06.042Z,4.25
2022-08-21T18:42:42.349Z,7.15
2022-08-21T18:45:23.286Z,2.80
2022-08-21T18:47:56.194Z,2.90
2022-08-21T18:52:59.419Z,10.10
2022-08-21T18:55:30.877Z,9.50
2022-08-21T18:58:01.366Z,7.70
2022-08-21T19:00:44.401Z,6.40
2022-08-21T19:03:15.243Z,7.13
2022-08-21T19:05:52.718Z,7.28
2022-08-21T19:08:27.347Z,6.78
2022-08-21T19:11:02.770Z,5.88
2022-08-21T19:13:35.656Z,5.95
2022-08-21T19:16:09.731Z,5.45
2022-08-21T19:18:43.172Z,5.05
2022-08-21T19:21:13.645Z,3.75
2022-08-21T19:23:48.198Z,4.22
2022-08-21T19:26:24.619Z,3.80
2022-08-21T19:28:59.631Z,3.42
2022-08-21T19:31:35.288Z,2.65
2022-08-21T19:34:09.714Z,2.72
2022-08-21T19:36:39.744Z,2.53
2022-08-21T19:39:12.543Z,2.70
2022-08-21T19:41:46.074Z,3.17
2022-08-21T19:44:23.822Z,2.88
2022-08-21T19:46:57.642Z,3.10
2022-08-21T19:51:58.866Z,2.88
2022-08-21T19:54:33.103Z,2.95
2022-08-21T19:57:07.608Z,3.33
2022-08-21T19:59:39.415Z,2.33
2022-08-21T20:02:14.368Z,3.22
2022-08-21T20:04:53.880Z,2.78
2022-08-21T20:07:26.899Z,2.55
2022-08-21T20:09:57.475Z,1.98
2022-08-21T20:12:27.907Z,2.88
2022-08-21T20:14:58.439Z,2.20
2022-08-21T20:17:31.183Z,2.33
2022-08-21T20:20:01.428Z,2.47
2022-08-21T20:22:31.719Z,2.63
2022-08-21T20:25:02.125Z,1.83
2022-08-21T20:27:32.454Z,2.78
2022-08-21T20:30:11.929Z,2.13
2022-08-21T20:32:44.855Z,2.80
2022-08-21T20:35:15.513Z,2.47
2022-08-21T20:37:45.819Z,2.95
2022-08-21T20:40:32.799Z,3.20
2022-08-21T20:43:03.792Z,2.97
2022-08-21T20:45:37.087Z,2.75
2022-08-21T20:48:14.602Z,2.53
2022-08-21T20:50:49.719Z,2.60
2022-08-21T20:53:43.606Z,3.10
2022-08-21T20:56:16.968Z,2.97
2022-08-21T20:58:51.117Z,3.00
2022-08-21T21:01:21.976Z,2.67
2022-08-21T21:04:01.098Z,2.30
2022-08-21T21:06:32.920Z,2.50
2022-08-21T21:09:09.914Z,2.85
2022-08-21T21:11:43.825Z,3.17
2022-08-21T21:14:16.194Z,3.30
2022-08-21T21:16:52.177Z,3.22
2022-08-21T21:19:36.965Z,2.78
2022-08-21T21:22:13.221Z,2.80
2022-08-21T21:24:48.764Z,3.47
2022-08-21T21:27:23.528Z,3.10
2022-08-21T21:29:58.681Z,3.65
2022-08-21T21:32:31.209Z,3.20
2022-08-21T21:35:04.175Z,3.42
2022-08-21T21:37:38.287Z,3.42
2022-08-21T21:40:44.620Z,3.30
2022-08-21T21:43:18.295Z,3.42
2022-08-21T21:45:58.622Z,3.65
2022-08-21T21:48:34.191Z,3.33
2022-08-21T21:51:16.511Z,3.40
2022-08-21T21:53:52.058Z,3.35
2022-08-21T21:59:12.516Z,3.40
2022-08-21T22:01:45.256Z,3.33
2022-08-21T22:04:20.705Z,3.42
2022-08-21T22:07:00.215Z,3.47
2022-08-21T22:09:44.280Z,3.50
2022-08-21T22:12:24.942Z,3.15
2022-08-21T22:14:55.760Z,4.15
2022-08-21T22:17:35.219Z,4.43
2022-08-21T22:20:09.481Z,3.17
2022-08-21T22:22:46.125Z,3.72
2022-08-21T22:25:21.233Z,3.20
2022-08-21T22:30:41.876Z,3.78
2022-08-21T22:33:20.036Z,3.50
2022-08-21T22:35:51.905Z,3.78
2022-08-21T22:38:33.364Z,3.70
2022-08-21T22:41:17.299Z,3.40
2022-08-21T22:43:56.289Z,4.10
2022-08-21T22:46:32.261Z,3.67
2022-08-21T22:49:07.974Z,3.35
2022-08-21T22:51:39.912Z,4.03
2022-08-21T22:57:10.193Z,3.72
2022-08-21T22:59:57.426Z,3.40
2022-08-21T23:02:38.016Z,4.25
2022-08-21T23:05:19.148Z,4.30
2022-08-21T23:07:51.579Z,3.85
2022-08-21T23:10:28.371Z,4.28
2022-08-21T23:13:09.044Z,3.28
2022-08-21T23:15:56.521Z,4.65
2022-08-21T23:18:33.187Z,4.20
2022-08-21T23:21:07.340Z,4.55
2022-08-21T23:23:41.715Z,4.20
2022-08-21T23:26:22.816Z,4.15
2022-08-21T23:29:07.887Z,4.20
2022-08-21T23:31:41.442Z,4.47
2022-08-21T23:34:19.662Z,4.18
2022-08-21T23:40:15.885Z,4.10
2022-08-21T23:43:03.571Z,4.22
2022-08-21T23:45:39.919Z,4.20
2022-08-21T23:48:29.539Z,4.70
2022-08-21T23:51:04.026Z,4.45
2022-08-21T23:53:41.760Z,3.97
2022-08-21T23:56:21.207Z,4.15
2022-08-21T23:59:05.592Z,3.55
